Time;durP1;ratioP1;P1;durP2;ratioP2;P2;SDS_P1;SDS_P2;PMS_P1;PMS_P2;Temp;Humidity;BMP_temperature;BMP_pressure;BME280_temperature;BME280_humidity;BME280_pressure;Samples;Min_cycle;Max_cycle;Signal;HPM_P1;HPM_P2
2022/08/02 00:00:43;;;;;;;;;;;19.90;53.00;;;;;;5163831;27;19927;-46
2022/08/02 00:03:09;;;;;;;;;;;20.10;57.40;;;;;;5169663;27;19922;-47
2022/08/02 00:05:35;;;;;;;;;;;20.80;61.70;;;;;;5164574;27;20377;-45
2022/08/02 00:08:01;;;;;;;;;;;21.50;62.70;;;;;;5165221;27;19926;-56
2022/08/02 00:10:26;;;;;;;;;;;21.50;60.10;;;;;;5169112;27;19927;-48
2022/08/02 00:12:52;;;;;;;;;;;20.80;58.00;;;;;;5145509;27;19922;-48
2022/08/02 00:15:18;;;;;;;;;;;20.60;56.20;;;;;;5167885;27;20374;-46
2022/08/02 00:17:44;;;;;;;;;;;20.30;54.90;;;;;;5144797;27;19968;-45
2022/08/02 00:20:10;;;;;;;;;;;20.40;54.10;;;;;;5142798;27;19935;-48
2022/08/02 00:22:36;;;;;;;;;;;20.20;53.30;;;;;;5169425;27;19923;-47
2022/08/02 00:25:02;;;;;;;;;;;20.10;52.60;;;;;;5163765;27;19933;-48
2022/08/02 00:27:28;;;;;;;;;;;20.10;56.00;;;;;;5163849;27;20324;-47
2022/08/02 00:29:54;;;;;;;;;;;20.70;61.60;;;;;;5169091;27;19934;-46
2022/08/02 00:32:20;;;;;;;;;;;21.40;62.70;;;;;;5162461;27;19969;-47
2022/08/02 00:34:46;;;;;;;;;;;21.70;60.90;;;;;;5168134;27;20304;-45
2022/08/02 00:37:12;;;;;;;;;;;20.90;58.20;;;;;;5163290;27;19934;-46
2022/08/02 00:39:37;;;;;;;;;;;20.50;56.10;;;;;;5163566;27;19923;-49
2022/08/02 00:42:03;;;;;;;;;;;20.40;54.80;;;;;;5169157;27;20370;-46
2022/08/02 00:44:29;;;;;;;;;;;20.20;54.10;;;;;;5163509;27;19934;-46
2022/08/02 00:46:55;;;;;;;;;;;19.80;53.80;;;;;;5163184;27;20238;-46
2022/08/02 00:49:21;;;;;;;;;;;19.80;53.30;;;;;;5169010;27;19922;-46
2022/08/02 00:51:46;;;;;;;;;;;19.90;54.30;;;;;;5161666;27;19927;-47
2022/08/02 00:54:13;;;;;;;;;;;20.50;60.80;;;;;;5168273;27;19978;-50
2022/08/02 00:56:39;;;;;;;;;;;21.20;63.10;;;;;;5163337;27;19931;-47
2022/08/02 00:59:05;;;;;;;;;;;21.80;62.00;;;;;;5144758;27;20290;-48
2022/08/02 01:01:40;;;;;;;;;;;21.10;59.10;;;;;;5130980;27;19923;-45
2022/08/02 01:04:10;;;;;;;;;;;20.60;57.00;;;;;;5163062;27;19963;-46
2022/08/02 01:06:37;;;;;;;;;;;20.40;55.30;;;;;;5163111;27;19930;-50
2022/08/02 01:09:02;;;;;;;;;;;20.20;54.20;;;;;;5167565;27;19923;-47
2022/08/02 01:11:28;;;;;;;;;;;19.90;53.80;;;;;;5143451;27;19929;-46
2022/08/02 01:13:59;;;;;;;;;;;20.00;54.00;;;;;;5162888;27;19930;-47
2022/08/02 01:16:25;;;;;;;;;;;20.40;61.40;;;;;;5168558;27;20296;-47
2022/08/02 01:18:51;;;;;;;;;;;21.20;63.30;;;;;;5144663;27;19932;-47
2022/08/02 01:21:36;;;;;;;;;;;21.60;61.70;;;;;;5149843;27;20017;-46
2022/08/02 01:24:06;;;;;;;;;;;20.90;58.80;;;;;;5149657;27;19929;-47
2022/08/02 01:26:42;;;;;;;;;;;20.40;56.50;;;;;;5124579;27;20010;-47
2022/08/02 01:29:27;;;;;;;;;;;20.20;55.50;;;;;;5146758;27;19927;-54
2022/08/02 01:31:58;;;;;;;;;;;20.00;54.00;;;;;;5168099;27;19946;-48
2022/08/02 01:34:24;;;;;;;;;;;20.00;53.20;;;;;;5162945;27;20198;-47
2022/08/02 01:37:06;;;;;;;;;;;19.90;55.80;;;;;;5168257;27;19934;-46
2022/08/02 01:39:32;;;;;;;;;;;20.60;61.30;;;;;;5149903;27;20013;-47
2022/08/02 01:41:58;;;;;;;;;;;21.20;63.50;;;;;;5143766;27;20374;-46
2022/08/02 01:44:24;;;;;;;;;;;21.60;61.10;;;;;;5168003;27;19958;-45
2022/08/02 01:46:50;;;;;;;;;;;20.90;58.40;;;;;;5160907;27;19929;-51
2022/08/02 01:49:17;;;;;;;;;;;20.50;56.30;;;;;;5161849;27;20381;-46
2022/08/02 01:54:28;;;;;;;;;;;20.10;54.00;;;;;;5162528;27;20308;-48
2022/08/02 01:56:54;;;;;;;;;;;19.80;53.60;;;;;;5142523;27;20363;-48
2022/08/02 01:59:20;;;;;;;;;;;19.90;53.10;;;;;;5149260;27;20233;-47
2022/08/02 02:01:46;;;;;;;;;;;20.30;60.10;;;;;;5162334;27;19975;-46
2022/08/02 02:04:12;;;;;;;;;;;21.00;62.80;;;;;;5161245;27;19923;-49
2022/08/02 02:06:38;;;;;;;;;;;21.70;61.90;;;;;;5166255;27;19934;-48
2022/08/02 02:09:03;;;;;;;;;;;21.00;58.50;;;;;;5162047;27;19923;-46
2022/08/02 02:11:29;;;;;;;;;;;20.60;56.70;;;;;;5149191;27;19923;-47
2022/08/02 02:13:59;;;;;;;;;;;20.30;55.10;;;;;;5162333;27;19994;-49
2022/08/02 02:16:26;;;;;;;;;;;20.00;54.10;;;;;;5161893;27;20057;-47
2022/08/02 02:18:51;;;;;;;;;;;19.90;53.50;;;;;;5167563;27;19927;-48
2022/08/02 02:21:17;;;;;;;;;;;20.10;54.50;;;;;;5161892;27;19923;-49
2022/08/02 02:23:43;;;;;;;;;;;20.50;61.50;;;;;;5160262;27;19957;-51
2022/08/02 02:26:09;;;;;;;;;;;21.20;62.80;;;;;;5167051;27;19974;-47
2022/08/02 02:28:35;;;;;;;;;;;21.50;60.60;;;;;;5161679;27;19922;-48
2022/08/02 02:31:19;;;;;;;;;;;20.80;58.00;;;;;;5148939;27;19930;-46
2022/08/02 02:33:46;;;;;;;;;;;20.50;55.90;;;;;;5167167;27;19969;-48
2022/08/02 02:36:11;;;;;;;;;;;20.20;54.50;;;;;;5161604;27;20392;-47
2022/08/02 02:38:37;;;;;;;;;;;20.00;53.80;;;;;;5167051;27;19925;-45
2022/08/02 02:41:03;;;;;;;;;;;20.00;52.80;;;;;;5141638;27;19931;-46
2022/08/02 02:43:30;;;;;;;;;;;19.80;53.00;;;;;;5142070;27;19923;-48
2022/08/02 02:45:56;;;;;;;;;;;20.30;60.20;;;;;;5166923;27;19929;-47
2022/08/02 02:48:21;;;;;;;;;;;20.90;62.80;;;;;;5161870;27;20365;-46
2022/08/02 02:50:47;;;;;;;;;;;21.70;62.20;;;;;;5161975;27;19996;-46
2022/08/02 02:53:14;;;;;;;;;;;21.10;59.10;;;;;;5148464;27;19967;-46
2022/08/02 02:55:40;;;;;;;;;;;20.60;56.90;;;;;;5139125;27;20014;-46
2022/08/02 02:58:07;;;;;;;;;;;20.20;55.50;;;;;;5167021;27;20009;-46
2022/08/02 03:03:17;;;;;;;;;;;19.90;53.70;;;;;;5161062;27;20381;-48
2022/08/02 03:05:43;;;;;;;;;;;19.90;54.80;;;;;;5167056;27;19970;-47
2022/08/02 03:08:09;;;;;;;;;;;20.50;61.00;;;;;;5161599;27;19923;-51
2022/08/02 03:10:35;;;;;;;;;;;21.20;62.70;;;;;;5161544;27;19927;-49
2022/08/02 03:13:01;;;;;;;;;;;21.70;60.90;;;;;;5148590;27;19922;-47
2022/08/02 03:15:27;;;;;;;;;;;20.80;57.90;;;;;;5142834;27;20308;-46
2022/08/02 03:17:53;;;;;;;;;;;20.50;56.10;;;;;;5141440;27;20125;-46
2022/08/02 03:20:18;;;;;;;;;;;20.10;55.00;;;;;;5169051;27;19969;-45
2022/08/02 03:22:44;;;;;;;;;;;20.10;53.80;;;;;;5164303;27;20370;-47
2022/08/02 03:25:10;;;;;;;;;;;20.10;53.20;;;;;;5170162;27;20003;-46
2022/08/02 03:27:36;;;;;;;;;;;19.90;53.30;;;;;;5128120;27;20432;-48
2022/08/02 03:30:02;;;;;;;;;;;20.20;57.70;;;;;;5164340;27;20006;-51
2022/08/02 03:32:28;;;;;;;;;;;20.80;61.80;;;;;;5170218;27;20014;-48
2022/08/02 03:34:54;;;;;;;;;;;21.60;61.90;;;;;;5164755;27;20413;-46
2022/08/02 03:37:20;;;;;;;;;;;21.20;59.10;;;;;;5162564;27;20451;-49
2022/08/02 03:39:46;;;;;;;;;;;20.80;56.70;;;;;;5169423;27;19930;-46
2022/08/02 03:42:12;;;;;;;;;;;20.30;55.60;;;;;;5164249;27;20159;-49
2022/08/02 03:44:38;;;;;;;;;;;20.10;54.40;;;;;;5150969;27;20232;-57
2022/08/02 03:47:04;;;;;;;;;;;19.90;53.80;;;;;;5147049;27;20022;-45
2022/08/02 03:49:30;;;;;;;;;;;19.90;52.90;;;;;;5164078;27;20009;-47
2022/08/02 03:51:56;;;;;;;;;;;20.10;57.00;;;;;;5169819;27;20410;-47
2022/08/02 03:54:22;;;;;;;;;;;20.80;61.30;;;;;;5144727;27;19922;-47
2022/08/02 03:56:48;;;;;;;;;;;21.50;61.80;;;;;;5163233;27;19923;-46
2022/08/02 03:59:14;;;;;;;;;;;21.30;59.60;;;;;;5150929;27;20315;-46
2022/08/02 04:01:39;;;;;;;;;;;20.80;57.10;;;;;;5164042;27;19976;-47
2022/08/02 04:04:05;;;;;;;;;;;20.50;55.10;;;;;;5166531;27;19960;-55
2022/08/02 04:06:31;;;;;;;;;;;20.30;53.90;;;;;;5167741;27;19938;-45
2022/08/02 04:08:57;;;;;;;;;;;20.10;53.50;;;;;;5163955;27;20366;-47
2022/08/02 04:11:31;;;;;;;;;;;19.80;53.10;;;;;;5169830;27;19950;-48
2022/08/02 04:14:01;;;;;;;;;;;19.90;52.60;;;;;;5162648;27;19930;-47
2022/08/02 04:16:33;;;;;;;;;;;20.30;58.30;;;;;;5163449;27;20368;-46
2022/08/02 04:19:00;;;;;;;;;;;20.90;61.80;;;;;;5150461;27;19974;-46
2022/08/02 04:21:27;;;;;;;;;;;21.70;61.50;;;;;;5145664;27;19947;-47
2022/08/02 04:23:53;;;;;;;;;;;21.10;58.40;;;;;;5163837;27;19929;-48
2022/08/02 04:26:18;;;;;;;;;;;20.60;56.30;;;;;;5148737;27;20392;-45
2022/08/02 04:28:44;;;;;;;;;;;20.30;55.00;;;;;;5163592;27;19927;-45
2022/08/02 04:31:10;;;;;;;;;;;20.20;53.90;;;;;;5146656;27;20244;-55
2022/08/02 04:33:36;;;;;;;;;;;20.00;53.50;;;;;;5166023;27;19931;-48
2022/08/02 04:36:02;;;;;;;;;;;19.80;53.20;;;;;;5163459;27;20396;-46
2022/08/02 04:38:27;;;;;;;;;;;20.10;57.70;;;;;;5169483;27;20457;-47
2022/08/02 04:40:54;;;;;;;;;;;20.80;61.70;;;;;;5163841;27;20018;-45
2022/08/02 04:43:20;;;;;;;;;;;21.50;61.60;;;;;;5163620;27;19929;-48
2022/08/02 04:45:47;;;;;;;;;;;21.30;58.70;;;;;;5169007;27;20021;-48
2022/08/02 04:48:13;;;;;;;;;;;20.70;57.10;;;;;;5163707;27;20381;-51
2022/08/02 04:50:39;;;;;;;;;;;20.50;54.90;;;;;;5161886;27;19930;-49
2022/08/02 04:53:04;;;;;;;;;;;20.10;54.50;;;;;;5168167;27;20029;-49
2022/08/02 04:55:30;;;;;;;;;;;19.80;53.70;;;;;;5163217;27;19922;-46
2022/08/02 04:57:56;;;;;;;;;;;20.00;52.70;;;;;;5169194;27;19962;-48
2022/08/02 05:00:22;;;;;;;;;;;20.10;57.70;;;;;;5159580;27;20473;-49
2022/08/02 05:02:48;;;;;;;;;;;20.80;61.80;;;;;;5163322;27;20365;-47
2022/08/02 05:05:14;;;;;;;;;;;21.60;61.30;;;;;;5150014;27;20047;-47
2022/08/02 05:07:39;;;;;;;;;;;21.10;58.70;;;;;;5162062;27;19922;-50
2022/08/02 05:10:05;;;;;;;;;;;20.70;56.50;;;;;;5161965;27;19962;-44
2022/08/02 05:12:31;;;;;;;;;;;20.30;54.80;;;;;;5168220;27;19971;-47
2022/08/02 05:14:57;;;;;;;;;;;20.00;54.00;;;;;;5163260;27;19926;-48
2022/08/02 05:17:23;;;;;;;;;;;19.90;53.40;;;;;;5168778;27;20370;-47
2022/08/02 05:19:48;;;;;;;;;;;20.00;52.70;;;;;;5163093;27;19930;-46
2022/08/02 05:22:14;;;;;;;;;;;19.80;53.80;;;;;;5162913;27;19926;-50
2022/08/02 05:24:40;;;;;;;;;;;20.40;60.20;;;;;;5168554;27;19923;-46
2022/08/02 05:27:06;;;;;;;;;;;21.10;61.60;;;;;;5161233;27;20297;-46
2022/08/02 05:29:31;;;;;;;;;;;21.80;60.00;;;;;;5161966;27;19922;-47
2022/08/02 05:31:57;;;;;;;;;;;21.00;57.60;;;;;;5168239;27;19922;-46
2022/08/02 05:34:23;;;;;;;;;;;20.50;56.20;;;;;;5144365;27;19951;-45
2022/08/02 05:36:49;;;;;;;;;;;20.50;54.50;;;;;;5168276;27;19927;-47
2022/08/02 05:39:14;;;;;;;;;;;20.30;53.60;;;;;;5162641;27;20370;-45
2022/08/02 05:41:40;;;;;;;;;;;20.00;52.90;;;;;;5161894;27;19927;-45
2022/08/02 05:44:06;;;;;;;;;;;19.80;53.20;;;;;;5167354;27;19931;-47
2022/08/02 05:46:32;;;;;;;;;;;20.00;56.90;;;;;;5161353;27;20382;-49
2022/08/02 05:48:58;;;;;;;;;;;20.80;60.80;;;;;;5162272;27;20306;-46
2022/08/02 05:51:35;;;;;;;;;;;21.50;61.10;;;;;;5167946;27;20396;-46
2022/08/02 05:54:06;;;;;;;;;;;21.50;58.60;;;;;;5162562;27;20505;-46
2022/08/02 05:56:33;;;;;;;;;;;20.80;56.60;;;;;;5162218;27;20310;-47
2022/08/02 05:59:11;;;;;;;;;;;20.50;54.70;;;;;;5167636;27;20417;-48
2022/08/02 06:01:37;;;;;;;;;;;20.30;53.80;;;;;;5162427;27;19978;-49
2022/08/02 06:04:07;;;;;;;;;;;20.00;53.20;;;;;;5163394;27;20017;-54
2022/08/02 06:06:32;;;;;;;;;;;19.90;53.00;;;;;;5165930;27;19923;-47
2022/08/02 06:08:59;;;;;;;;;;;20.10;56.80;;;;;;5162046;27;19927;-47
2022/08/02 06:11:28;;;;;;;;;;;20.80;60.90;;;;;;5167760;27;19933;-46
2022/08/02 06:13:54;;;;;;;;;;;21.50;60.70;;;;;;5162154;27;19930;-46
2022/08/02 06:16:20;;;;;;;;;;;21.40;58.10;;;;;;5161700;27;20447;-48
2022/08/02 06:18:46;;;;;;;;;;;20.60;56.80;;;;;;5149067;27;19927;-48
2022/08/02 06:21:13;;;;;;;;;;;20.50;54.50;;;;;;5142470;27;19971;-48
2022/08/02 06:23:39;;;;;;;;;;;20.30;53.50;;;;;;5142183;27;20234;-48
2022/08/02 06:26:05;;;;;;;;;;;19.90;53.20;;;;;;5167073;27;19974;-47
2022/08/02 06:28:31;;;;;;;;;;;20.00;52.30;;;;;;5161921;27;20357;-46
2022/08/02 06:30:57;;;;;;;;;;;19.80;53.30;;;;;;5167562;27;20322;-49
2022/08/02 06:33:23;;;;;;;;;;;20.50;59.00;;;;;;5162003;27;19931;-48
2022/08/02 06:36:08;;;;;;;;;;;21.10;61.10;;;;;;5161918;27;19970;-46
2022/08/02 06:38:39;;;;;;;;;;;21.80;59.50;;;;;;5167453;27;19926;-45
2022/08/02 06:41:06;;;;;;;;;;;20.90;57.20;;;;;;5160234;27;20323;-47
2022/08/02 06:43:51;;;;;;;;;;;20.60;55.40;;;;;;5161160;27;19967;-46
2022/08/02 06:46:16;;;;;;;;;;;20.10;54.40;;;;;;5167179;27;19927;-46
2022/08/02 06:48:42;;;;;;;;;;;20.20;53.30;;;;;;5161702;27;19938;-46
2022/08/02 06:51:08;;;;;;;;;;;19.90;53.10;;;;;;5142886;27;19923;-47
2022/08/02 06:53:34;;;;;;;;;;;19.80;52.40;;;;;;5169775;27;20302;-48
2022/08/02 06:55:59;;;;;;;;;;;20.50;58.50;;;;;;5165380;27;20406;-50
2022/08/02 06:58:25;;;;;;;;;;;21.20;60.80;;;;;;5164037;27;19931;-52
2022/08/02 07:00:51;;;;;;;;;;;21.80;59.20;;;;;;5169895;27;19926;-47
2022/08/02 07:03:17;;;;;;;;;;;21.10;57.20;;;;;;5146041;27;19934;-50
2022/08/02 07:05:47;;;;;;;;;;;20.70;55.30;;;;;;5170656;27;20296;-46
2022/08/02 07:08:13;;;;;;;;;;;20.40;54.40;;;;;;5165255;27;19995;-47
2022/08/02 07:10:39;;;;;;;;;;;20.30;53.70;;;;;;5164992;27;20293;-45
2022/08/02 07:13:05;;;;;;;;;;;20.10;53.30;;;;;;5170511;27;19931;-46
2022/08/02 07:15:31;;;;;;;;;;;20.00;52.90;;;;;;5164718;27;20386;-47
2022/08/02 07:17:57;;;;;;;;;;;20.20;53.00;;;;;;5144733;27;20042;-47
2022/08/02 07:20:23;;;;;;;;;;;20.50;59.40;;;;;;5169758;27;19927;-47
2022/08/02 07:22:48;;;;;;;;;;;21.30;60.60;;;;;;5164777;27;19926;-45
2022/08/02 07:25:14;;;;;;;;;;;21.80;58.80;;;;;;5170483;27;19929;-52
2022/08/02 07:27:40;;;;;;;;;;;21.10;56.70;;;;;;5165097;27;20426;-45
2022/08/02 07:30:06;;;;;;;;;;;20.60;55.70;;;;;;5165014;27;20545;-48
2022/08/02 07:32:32;;;;;;;;;;;20.40;54.40;;;;;;5170259;27;19930;-49
2022/08/02 07:34:58;;;;;;;;;;;20.40;53.10;;;;;;5163494;27;19997;-45
2022/08/02 07:37:25;;;;;;;;;;;20.20;52.90;;;;;;5163727;27;19989;-46
2022/08/02 07:39:50;;;;;;;;;;;19.80;52.80;;;;;;5169973;27;19926;-47
2022/08/02 07:42:16;;;;;;;;;;;20.30;58.60;;;;;;5164767;27;19978;-46
2022/08/02 07:44:42;;;;;;;;;;;21.20;60.50;;;;;;5167801;27;20021;-55
2022/08/02 07:47:08;;;;;;;;;;;21.70;59.20;;;;;;5167555;27;19927;-47
2022/08/02 07:49:33;;;;;;;;;;;20.90;57.00;;;;;;5164464;27;19923;-46
2022/08/02 07:51:59;;;;;;;;;;;20.80;54.80;;;;;;5170100;27;20331;-46
2022/08/02 07:54:25;;;;;;;;;;;20.40;54.30;;;;;;5162934;27;19927;-46
2022/08/02 07:56:52;;;;;;;;;;;20.20;53.70;;;;;;5163666;27;19933;-46
2022/08/02 07:59:18;;;;;;;;;;;20.20;52.90;;;;;;5169606;27;19927;-44
2022/08/02 08:01:44;;;;;;;;;;;20.10;52.40;;;;;;5144470;27;19937;-47
2022/08/02 08:04:10;;;;;;;;;;;20.20;52.00;;;;;;5163845;27;19927;-52
2022/08/02 08:06:36;;;;;;;;;;;19.80;54.80;;;;;;5169771;27;19930;-49
2022/08/02 08:09:02;;;;;;;;;;;20.70;59.50;;;;;;5164332;27;19922;-45
2022/08/02 08:11:28;;;;;;;;;;;21.30;60.60;;;;;;5168605;27;19929;-50
2022/08/02 08:13:53;;;;;;;;;;;21.60;58.60;;;;;;5162868;27;20356;-47
2022/08/02 08:16:20;;;;;;;;;;;20.90;56.70;;;;;;5163856;27;19933;-46
2022/08/02 08:18:46;;;;;;;;;;;20.50;55.10;;;;;;5169670;27;20406;-46
2022/08/02 08:21:11;;;;;;;;;;;20.30;54.40;;;;;;5145646;27;19937;-47
2022/08/02 08:23:37;;;;;;;;;;;20.30;53.10;;;;;;5163857;27;20380;-47
2022/08/02 08:26:03;;;;;;;;;;;20.20;52.70;;;;;;5169279;27;19923;-48
2022/08/02 08:28:29;;;;;;;;;;;20.00;55.90;;;;;;5164114;27;19922;-46
2022/08/02 08:30:54;;;;;;;;;;;20.80;60.30;;;;;;5167527;27;19923;-45
2022/08/02 08:33:20;;;;;;;;;;;21.50;60.40;;;;;;5163003;27;19934;-48
2022/08/02 08:35:46;;;;;;;;;;;21.40;57.80;;;;;;5163578;27;19927;-50
2022/08/02 08:38:12;;;;;;;;;;;20.90;55.90;;;;;;5169353;27;19981;-46
2022/08/02 08:40:38;;;;;;;;;;;20.50;55.00;;;;;;5163667;27;19931;-47
2022/08/02 08:43:04;;;;;;;;;;;20.20;54.10;;;;;;5163498;27;20702;-46
2022/08/02 08:45:29;;;;;;;;;;;20.20;53.40;;;;;;5169195;27;20332;-51
2022/08/02 08:47:59;;;;;;;;;;;19.90;53.00;;;;;;5162709;27;19929;-50
2022/08/02 08:50:24;;;;;;;;;;;20.00;53.20;;;;;;5167504;27;19933;-52
2022/08/02 08:53:00;;;;;;;;;;;20.60;59.20;;;;;;5163624;27;20405;-48
2022/08/02 08:55:26;;;;;;;;;;;21.30;60.50;;;;;;5163535;27;19975;-46
2022/08/02 08:57:52;;;;;;;;;;;21.70;58.50;;;;;;5168775;27;19931;-47
2022/08/02 09:00:18;;;;;;;;;;;21.00;56.40;;;;;;5163232;27;20355;-47
2022/08/02 09:02:43;;;;;;;;;;;20.60;55.30;;;;;;5163102;27;19926;-45
2022/08/02 09:05:10;;;;;;;;;;;20.40;54.30;;;;;;5168726;27;19930;-45
2022/08/02 09:07:36;;;;;;;;;;;20.30;53.40;;;;;;5161838;27;20289;-46
2022/08/02 09:10:21;;;;;;;;;;;20.20;53.30;;;;;;5144031;27;19927;-46
2022/08/02 09:12:59;;;;;;;;;;;20.10;52.90;;;;;;5168798;27;20022;-45
2022/08/02 09:15:25;;;;;;;;;;;20.00;52.70;;;;;;5142561;27;19941;-47
2022/08/02 09:17:52;;;;;;;;;;;20.60;58.50;;;;;;5162624;27;20183;-48
2022/08/02 09:20:17;;;;;;;;;;;21.30;60.30;;;;;;5168474;27;19954;-46
2022/08/02 09:22:43;;;;;;;;;;;21.80;58.40;;;;;;5162721;27;19923;-45
2022/08/02 09:25:13;;;;;;;;;;;21.10;56.50;;;;;;5166964;27;19922;-50
2022/08/02 09:27:39;;;;;;;;;;;20.80;54.80;;;;;;5161771;27;19929;-45
2022/08/02 09:30:05;;;;;;;;;;;20.80;53.80;;;;;;5162605;27;19962;-49
2022/08/02 09:32:32;;;;;;;;;;;20.50;53.20;;;;;;5149585;27;19929;-46
2022/08/02 09:34:57;;;;;;;;;;;20.30;52.80;;;;;;5143657;27;19931;-49
2022/08/02 09:37:27;;;;;;;;;;;20.30;52.40;;;;;;5162413;27;19928;-45
2022/08/02 09:39:53;;;;;;;;;;;20.20;52.50;;;;;;5167926;27;19975;-47
2022/08/02 09:42:19;;;;;;;;;;;20.40;58.00;;;;;;5162480;27;19946;-49
2022/08/02 09:44:57;;;;;;;;;;;21.20;60.30;;;;;;5163028;27;19929;-56
2022/08/02 09:47:23;;;;;;;;;;;21.80;59.00;;;;;;5167568;27;19927;-47
2022/08/02 09:49:49;;;;;;;;;;;21.30;56.50;;;;;;5162562;27;19930;-45
2022/08/02 09:52:20;;;;;;;;;;;20.80;55.20;;;;;;5168122;27;19971;-45
2022/08/02 09:54:45;;;;;;;;;;;20.60;54.20;;;;;;5143153;27;19923;-49
2022/08/02 09:57:11;;;;;;;;;;;20.50;53.50;;;;;;5162151;27;20298;-45
2022/08/02 09:59:37;;;;;;;;;;;20.30;53.10;;;;;;5167891;27;19922;-45
2022/08/02 10:02:07;;;;;;;;;;;20.00;53.20;;;;;;5160937;27;19927;-45
2022/08/02 10:04:34;;;;;;;;;;;20.10;52.60;;;;;;5161282;27;20029;-49
2022/08/02 10:07:02;;;;;;;;;;;20.00;52.30;;;;;;5167551;27;20372;-46
2022/08/02 10:09:28;;;;;;;;;;;19.80;53.70;;;;;;5162174;27;19927;-49
2022/08/02 10:11:54;;;;;;;;;;;20.60;58.80;;;;;;5162909;27;19927;-56
2022/08/02 10:14:20;;;;;;;;;;;21.30;60.10;;;;;;5167312;27;19922;-45
2022/08/02 10:16:45;;;;;;;;;;;21.80;58.50;;;;;;5162055;27;20288;-47
2022/08/02 10:19:11;;;;;;;;;;;21.10;56.00;;;;;;5167542;27;20396;-48
2022/08/02 10:21:44;;;;;;;;;;;20.80;54.80;;;;;;5141663;27;19935;-46
2022/08/02 10:24:11;;;;;;;;;;;20.30;54.30;;;;;;5143005;27;20318;-45
2022/08/02 10:26:37;;;;;;;;;;;20.50;53.40;;;;;;5167205;27;20446;-43
2022/08/02 10:29:03;;;;;;;;;;;20.50;52.70;;;;;;5161698;27;19937;-47
2022/08/02 10:31:33;;;;;;;;;;;20.40;52.50;;;;;;5161803;27;19927;-46
2022/08/02 10:34:00;;;;;;;;;;;20.40;52.20;;;;;;5147630;27;20018;-46
2022/08/02 10:36:26;;;;;;;;;;;20.20;52.40;;;;;;5143051;27;20384;-46
2022/08/02 10:38:54;;;;;;;;;;;20.00;52.20;;;;;;5123780;27;21175;-54
2022/08/02 10:41:38;;;;;;;;;;;19.90;52.40;;;;;;5124526;27;20404;-47
2022/08/02 10:44:04;;;;;;;;;;;20.40;57.80;;;;;;5141028;27;20402;-48
2022/08/02 10:46:34;;;;;;;;;;;21.30;59.90;;;;;;5146512;27;19930;-47
2022/08/02 10:49:00;;;;;;;;;;;21.90;58.70;;;;;;5141894;27;19923;-46
2022/08/02 10:51:45;;;;;;;;;;;21.10;56.70;;;;;;5140584;27;19930;-44
2022/08/02 10:54:11;;;;;;;;;;;20.90;55.10;;;;;;5146195;27;19976;-45
2022/08/02 10:56:46;;;;;;;;;;;20.60;54.00;;;;;;5121352;27;19923;-48
2022/08/02 10:59:22;;;;;;;;;;;20.30;53.70;;;;;;5139550;27;20359;-50
2022/08/02 11:01:48;;;;;;;;;;;20.20;53.30;;;;;;5145923;27;19929;-46
2022/08/02 11:04:13;;;;;;;;;;;20.00;52.80;;;;;;5140700;27;19924;-50
2022/08/02 11:06:58;;;;;;;;;;;20.00;52.20;;;;;;5140716;27;20019;-45
2022/08/02 11:09:27;;;;;;;;;;;20.00;52.20;;;;;;5145895;27;19975;-48
2022/08/02 11:11:59;;;;;;;;;;;20.60;58.10;;;;;;5140547;27;20034;-47
2022/08/02 11:14:25;;;;;;;;;;;21.30;59.80;;;;;;5140358;27;20021;-51
2022/08/02 11:16:54;;;;;;;;;;;21.70;58.20;;;;;;5144403;27;20286;-46
2022/08/02 11:19:20;;;;;;;;;;;21.10;56.10;;;;;;5140217;27;20366;-46
2022/08/02 11:22:05;;;;;;;;;;;20.80;54.60;;;;;;5140403;27;20013;-45
2022/08/02 11:24:37;;;;;;;;;;;20.60;53.50;;;;;;5146080;27;20427;-44
2022/08/02 11:27:03;;;;;;;;;;;20.30;53.30;;;;;;5140333;27;19929;-46
2022/08/02 11:29:38;;;;;;;;;;;20.30;52.40;;;;;;5140221;27;20207;-46
2022/08/02 11:32:07;;;;;;;;;;;20.30;52.30;;;;;;5145526;27;19930;-45
2022/08/02 11:34:33;;;;;;;;;;;20.10;52.10;;;;;;5138755;27;19929;-48
2022/08/02 11:36:59;;;;;;;;;;;20.20;56.80;;;;;;5141948;27;20025;-54
2022/08/02 11:39:25;;;;;;;;;;;21.10;59.30;;;;;;5144276;27;19950;-46
2022/08/02 11:41:51;;;;;;;;;;;21.80;59.00;;;;;;5143954;27;19930;-47
2022/08/02 11:44:17;;;;;;;;;;;21.30;56.90;;;;;;5130684;27;20624;-48
2022/08/02 11:46:43;;;;;;;;;;;20.90;55.00;;;;;;5143595;27;19923;-46
2022/08/02 11:49:16;;;;;;;;;;;20.60;53.90;;;;;;5143512;27;19926;-45
2022/08/02 11:51:51;;;;;;;;;;;20.50;53.10;;;;;;5148132;27;20313;-45
2022/08/02 11:54:24;;;;;;;;;;;20.30;52.90;;;;;;5142487;27;20328;-44
2022/08/02 11:56:50;;;;;;;;;;;20.30;52.60;;;;;;5143192;27;20299;-46
2022/08/02 11:59:15;;;;;;;;;;;20.10;52.60;;;;;;5148942;27;19923;-47
2022/08/02 12:01:41;;;;;;;;;;;20.10;52.30;;;;;;5143653;27;20277;-48
2022/08/02 12:04:07;;;;;;;;;;;19.90;52.40;;;;;;5144835;27;19930;-56
2022/08/02 12:06:33;;;;;;;;;;;20.10;53.80;;;;;;5147675;27;19929;-46
2022/08/02 12:09:05;;;;;;;;;;;20.80;58.20;;;;;;5143443;27;19927;-47
2022/08/02 12:11:31;;;;;;;;;;;21.50;59.20;;;;;;5147211;27;19927;-46
2022/08/02 12:13:57;;;;;;;;;;;21.80;57.10;;;;;;5142872;27;20429;-49
2022/08/02 12:19:22;;;;;;;;;;;20.70;54.50;;;;;;5148728;27;19930;-48
2022/08/02 12:21:48;;;;;;;;;;;20.60;53.40;;;;;;5143059;27;19929;-46
2022/08/02 12:24:25;;;;;;;;;;;20.50;52.80;;;;;;5143082;27;19935;-48
2022/08/02 12:26:51;;;;;;;;;;;20.30;52.90;;;;;;5148596;27;19923;-45
2022/08/02 12:29:17;;;;;;;;;;;20.10;52.50;;;;;;5141572;27;20391;-47
2022/08/02 12:31:46;;;;;;;;;;;20.10;52.20;;;;;;5123465;27;19931;-46
2022/08/02 12:34:15;;;;;;;;;;;20.00;52.00;;;;;;5148126;27;19923;-46
2022/08/02 12:36:41;;;;;;;;;;;20.20;55.20;;;;;;5142922;27;20378;-50
2022/08/02 12:39:09;;;;;;;;;;;21.00;58.60;;;;;;5143136;27;20234;-48
2022/08/02 12:41:36;;;;;;;;;;;21.70;58.80;;;;;;5148421;27;20358;-46
2022/08/02 12:44:01;;;;;;;;;;;21.50;56.20;;;;;;5142732;27;19929;-49
2022/08/02 12:46:27;;;;;;;;;;;20.80;55.30;;;;;;5147627;27;19927;-46
2022/08/02 12:48:53;;;;;;;;;;;20.70;54.10;;;;;;5141397;27;19975;-50
2022/08/02 12:51:19;;;;;;;;;;;20.50;53.30;;;;;;5123300;27;20027;-45
2022/08/02 12:53:45;;;;;;;;;;;20.50;52.70;;;;;;5148039;27;19923;-46
2022/08/02 12:56:11;;;;;;;;;;;20.30;52.40;;;;;;5142944;27;19927;-47
2022/08/02 12:58:49;;;;;;;;;;;20.20;52.40;;;;;;5142295;27;20095;-45
2022/08/02 13:01:21;;;;;;;;;;;20.30;51.90;;;;;;5147818;27;20398;-46
2022/08/02 13:03:47;;;;;;;;;;;20.00;52.20;;;;;;5142579;27;19931;-47
2022/08/02 13:06:13;;;;;;;;;;;20.10;51.60;;;;;;5140902;27;20213;-46
2022/08/02 13:08:39;;;;;;;;;;;20.20;55.10;;;;;;5147066;27;19923;-46
2022/08/02 13:11:04;;;;;;;;;;;20.90;58.90;;;;;;5142258;27;19923;-47
2022/08/02 13:13:30;;;;;;;;;;;21.80;58.40;;;;;;5147851;27;19927;-46
2022/08/02 13:15:56;;;;;;;;;;;21.50;56.30;;;;;;5142543;27;19945;-46
2022/08/02 13:18:22;;;;;;;;;;;21.00;54.90;;;;;;5142026;27;19923;-46
2022/08/02 13:20:48;;;;;;;;;;;20.80;54.00;;;;;;5147508;27;19975;-46
2022/08/02 13:23:14;;;;;;;;;;;20.50;53.10;;;;;;5141475;27;19927;-49
2022/08/02 13:25:42;;;;;;;;;;;20.50;52.70;;;;;;5140953;27;19923;-45
2022/08/02 13:28:08;;;;;;;;;;;20.50;52.10;;;;;;5147185;27;19923;-46
2022/08/02 13:30:34;;;;;;;;;;;20.30;51.80;;;;;;5142015;27;19975;-47
2022/08/02 13:33:00;;;;;;;;;;;20.00;51.90;;;;;;5147365;27;19927;-55
2022/08/02 13:35:25;;;;;;;;;;;20.10;51.80;;;;;;5142522;27;19923;-47
2022/08/02 13:37:51;;;;;;;;;;;20.20;54.80;;;;;;5141648;27;19976;-49
2022/08/02 13:40:17;;;;;;;;;;;20.90;58.10;;;;;;5147235;27;19949;-47
2022/08/02 13:42:43;;;;;;;;;;;21.80;57.90;;;;;;5140325;27;19929;-46
2022/08/02 13:45:09;;;;;;;;;;;21.50;55.70;;;;;;5140994;27;20600;-47
2022/08/02 13:47:36;;;;;;;;;;;20.90;54.70;;;;;;5147199;27;19923;-47
2022/08/02 13:50:03;;;;;;;;;;;20.70;53.80;;;;;;5141683;27;20014;-47
2022/08/02 13:52:28;;;;;;;;;;;20.50;53.30;;;;;;5143774;27;19927;-54
2022/08/02 13:54:54;;;;;;;;;;;20.40;52.70;;;;;;5145366;27;20214;-46
2022/08/02 13:57:20;;;;;;;;;;;20.40;52.10;;;;;;5141561;27;19930;-51
2022/08/02 13:59:46;;;;;;;;;;;20.30;52.20;;;;;;5146824;27;20381;-52
2022/08/02 14:02:12;;;;;;;;;;;20.30;51.80;;;;;;5139367;27;19987;-47
2022/08/02 14:04:38;;;;;;;;;;;20.30;51.70;;;;;;5141142;27;20387;-49
2022/08/02 14:07:03;;;;;;;;;;;20.30;51.20;;;;;;5146807;27;19923;-49
2022/08/02 14:09:31;;;;;;;;;;;20.20;51.30;;;;;;5141632;27;19946;-45
2022/08/02 14:11:58;;;;;;;;;;;20.10;51.30;;;;;;5141447;27;20450;-46
2022/08/02 14:14:24;;;;;;;;;;;20.40;55.30;;;;;;5146924;27;20399;-47
2022/08/02 14:16:49;;;;;;;;;;;21.20;57.50;;;;;;5141265;27;19923;-47
2022/08/02 14:19:15;;;;;;;;;;;21.70;56.60;;;;;;5145614;27;20294;-49
2022/08/02 14:21:41;;;;;;;;;;;21.20;55.20;;;;;;5140004;27;19923;-46
2022/08/02 14:24:07;;;;;;;;;;;20.90;53.90;;;;;;5140989;27;19930;-46